createdAt,value
2022-10-20T00:00:45.150Z,6.30
2022-10-20T00:03:13.603Z,5.83
2022-10-20T00:05:40.972Z,6.07
2022-10-20T00:08:08.108Z,6.43
2022-10-20T00:10:35.186Z,6.50
2022-10-20T00:13:02.314Z,7.07
2022-10-20T00:15:29.414Z,6.50
2022-10-20T00:17:56.538Z,6.63
2022-10-20T00:20:25.056Z,6.03
2022-10-20T00:22:52.163Z,7.10
2022-10-20T00:25:19.222Z,7.20
2022-10-20T00:27:46.309Z,6.50
2022-10-20T00:30:13.380Z,7.10
2022-10-20T00:32:40.481Z,6.83
2022-10-20T00:35:07.987Z,6.40
2022-10-20T00:37:36.420Z,6.30
2022-10-20T00:40:03.662Z,7.27
2022-10-20T00:42:30.812Z,7.37
2022-10-20T00:44:58.950Z,6.87
2022-10-20T00:47:33.040Z,7.53
2022-10-20T00:50:03.092Z,7.33
2022-10-20T00:52:30.184Z,6.43
2022-10-20T00:54:59.217Z,7.40
2022-10-20T00:57:26.513Z,7.40
2022-10-20T00:59:53.856Z,6.70
2022-10-20T01:02:20.971Z,6.80
2022-10-20T01:04:48.295Z,7.20
2022-10-20T01:07:15.414Z,6.80
2022-10-20T01:09:42.568Z,7.60
2022-10-20T01:12:16.642Z,8.50
2022-10-20T01:14:48.715Z,6.37
2022-10-20T01:17:19.923Z,7.67
2022-10-20T01:20:05.032Z,6.67
2022-10-20T01:22:47.678Z,7.47
2022-10-20T01:25:18.695Z,7.23
2022-10-20T01:27:47.417Z,8.00
2022-10-20T01:30:15.851Z,7.00
2022-10-20T01:32:53.317Z,6.50
2022-10-20T01:35:23.605Z,8.00
2022-10-20T01:37:54.347Z,6.20
2022-10-20T01:40:27.067Z,6.83
2022-10-20T01:42:57.714Z,7.17
2022-10-20T01:45:26.000Z,6.83
2022-10-20T01:47:53.949Z,7.10
2022-10-20T01:50:21.330Z,7.00
2022-10-20T01:52:48.446Z,5.90
2022-10-20T01:55:16.807Z,6.77
2022-10-20T01:57:47.611Z,6.10
2022-10-20T02:00:16.986Z,6.03
2022-10-20T02:02:51.844Z,6.43
2022-10-20T02:05:24.490Z,6.53
2022-10-20T02:07:53.093Z,7.00
2022-10-20T02:10:22.024Z,7.73
2022-10-20T02:12:51.083Z,5.83
2022-10-20T02:15:21.314Z,6.40
2022-10-20T02:17:49.969Z,5.87
2022-10-20T02:20:17.491Z,6.23
2022-10-20T02:22:45.438Z,5.80
2022-10-20T02:25:12.873Z,6.47
2022-10-20T02:27:41.725Z,6.50
2022-10-20T02:30:10.218Z,7.13
2022-10-20T02:32:39.919Z,6.93
2022-10-20T02:35:08.344Z,7.57
2022-10-20T02:37:35.887Z,6.90
2022-10-20T02:40:03.525Z,8.30
2022-10-20T02:42:30.650Z,6.43
2022-10-20T02:44:57.742Z,6.77
2022-10-20T02:47:24.876Z,7.17
2022-10-20T02:49:53.301Z,6.93
2022-10-20T02:52:20.397Z,6.57
2022-10-20T02:54:47.506Z,7.23
2022-10-20T02:57:14.587Z,6.33
2022-10-20T02:59:41.692Z,6.77
2022-10-20T03:02:08.834Z,6.37
2022-10-20T03:04:36.053Z,6.90
2022-10-20T03:07:04.458Z,6.83
2022-10-20T03:09:31.635Z,5.50
2022-10-20T03:11:58.764Z,7.43
2022-10-20T03:14:25.863Z,6.90
2022-10-20T03:16:52.961Z,6.53
2022-10-20T03:19:20.052Z,6.47
2022-10-20T03:21:47.170Z,7.13
2022-10-20T03:24:15.610Z,6.20
2022-10-20T03:26:42.716Z,7.10
2022-10-20T03:29:09.812Z,6.10
2022-10-20T03:31:36.891Z,7.40
2022-10-20T03:34:04.045Z,6.30
2022-10-20T03:36:31.105Z,7.13
2022-10-20T03:38:58.220Z,6.43
2022-10-20T03:41:26.690Z,5.60
2022-10-20T03:43:53.780Z,6.97
2022-10-20T03:46:20.885Z,6.40
2022-10-20T03:48:47.997Z,5.83
2022-10-20T03:51:15.460Z,6.73
2022-10-20T03:53:42.572Z,5.70
2022-10-20T03:56:10.152Z,6.30
2022-10-20T03:58:38.694Z,6.53
2022-10-20T04:01:06.030Z,5.93
2022-10-20T04:03:33.125Z,6.27
2022-10-20T04:06:00.221Z,5.57
2022-10-20T04:08:27.475Z,6.20
2022-10-20T04:10:54.653Z,6.77
2022-10-20T04:13:21.738Z,6.70
2022-10-20T04:15:50.195Z,6.43
2022-10-20T04:18:17.287Z,5.87
2022-10-20T04:20:44.783Z,5.60
2022-10-20T04:23:12.158Z,6.50
2022-10-20T04:25:40.195Z,5.87
2022-10-20T04:28:07.262Z,6.30
2022-10-20T04:30:34.346Z,5.40
2022-10-20T04:33:02.762Z,6.33
2022-10-20T04:35:29.857Z,5.67
2022-10-20T04:37:56.958Z,5.83
2022-10-20T04:40:24.069Z,5.97
2022-10-20T04:42:51.188Z,6.37
2022-10-20T04:45:18.460Z,5.90
2022-10-20T04:47:45.568Z,5.83
2022-10-20T04:50:14.024Z,4.53
2022-10-20T04:52:41.139Z,4.80
2022-10-20T04:55:08.775Z,4.90
2022-10-20T04:57:36.113Z,5.70
2022-10-20T05:00:03.552Z,7.17
2022-10-20T05:02:30.758Z,6.57
2022-10-20T05:04:57.840Z,5.57
2022-10-20T05:07:26.254Z,6.00
2022-10-20T05:09:53.330Z,6.00
2022-10-20T05:12:20.429Z,5.73
2022-10-20T05:14:47.580Z,6.00
2022-10-20T05:17:14.677Z,5.47
2022-10-20T05:19:41.755Z,5.87
2022-10-20T05:22:08.861Z,5.63
2022-10-20T05:24:37.498Z,6.03
2022-10-20T05:27:04.655Z,5.80
2022-10-20T05:29:31.863Z,5.63
2022-10-20T05:31:58.962Z,5.63
2022-10-20T05:34:26.037Z,5.40
2022-10-20T05:36:53.292Z,5.20
2022-10-20T05:39:20.463Z,5.50
2022-10-20T05:41:48.885Z,5.53
2022-10-20T05:44:16.010Z,5.93
2022-10-20T05:46:43.106Z,5.67
2022-10-20T05:49:13.808Z,6.10
2022-10-20T05:51:40.908Z,6.20
2022-10-20T05:54:08.021Z,6.80
2022-10-20T05:56:35.125Z,5.70
2022-10-20T05:59:03.574Z,6.03
2022-10-20T06:04:03.692Z,6.13
2022-10-20T06:06:31.498Z,5.30
2022-10-20T06:08:59.650Z,6.90
2022-10-20T06:11:26.880Z,6.67
2022-10-20T06:13:54.129Z,5.93
2022-10-20T06:16:23.277Z,6.33
2022-10-20T06:18:50.399Z,6.57
2022-10-20T06:21:18.344Z,5.10
2022-10-20T06:23:45.448Z,5.67
2022-10-20T06:26:13.607Z,6.20
2022-10-20T06:28:41.780Z,5.90
2022-10-20T06:31:12.778Z,6.33
2022-10-20T06:33:41.508Z,7.03
2022-10-20T06:36:09.001Z,7.13
2022-10-20T06:38:36.177Z,5.87
2022-10-20T06:41:03.352Z,5.87
2022-10-20T06:43:30.572Z,5.47
2022-10-20T06:45:58.637Z,6.37
2022-10-20T06:48:26.118Z,6.80
2022-10-20T06:50:57.873Z,6.47
2022-10-20T06:53:25.483Z,5.67
2022-10-20T06:55:56.123Z,6.40
2022-10-20T06:58:23.238Z,7.07
2022-10-20T07:00:58.487Z,7.60
2022-10-20T07:03:25.648Z,7.80
2022-10-20T07:05:52.746Z,6.23
2022-10-20T07:08:21.291Z,7.10
2022-10-20T07:10:48.390Z,7.30
2022-10-20T07:13:15.552Z,7.43
2022-10-20T07:15:42.655Z,7.00
2022-10-20T07:18:09.770Z,7.77
2022-10-20T07:20:36.853Z,6.83
2022-10-20T07:23:03.955Z,7.30
2022-10-20T07:25:32.378Z,6.13
2022-10-20T07:27:59.510Z,6.87
2022-10-20T07:30:26.573Z,6.47
2022-10-20T07:32:53.670Z,7.23
2022-10-20T07:35:20.790Z,7.10
2022-10-20T07:37:47.873Z,7.50
2022-10-20T07:40:15.066Z,6.90
2022-10-20T07:42:43.514Z,8.17
2022-10-20T07:45:10.762Z,8.07
2022-10-20T07:47:38.648Z,7.40
2022-10-20T07:50:07.175Z,7.70
2022-10-20T07:52:34.580Z,7.50
2022-10-20T07:55:12.299Z,6.70
2022-10-20T07:57:50.439Z,6.20
2022-10-20T08:00:17.539Z,6.50
2022-10-20T08:02:44.667Z,8.07
2022-10-20T08:05:12.070Z,7.60
2022-10-20T08:07:39.458Z,7.77
2022-10-20T08:10:07.159Z,8.50
2022-10-20T08:12:34.573Z,7.40
2022-10-20T08:15:05.921Z,8.50
2022-10-20T08:17:33.169Z,7.20
2022-10-20T08:22:41.514Z,6.57
2022-10-20T08:25:11.062Z,8.17
2022-10-20T08:27:38.189Z,7.57
2022-10-20T08:30:22.965Z,7.40
2022-10-20T08:32:51.404Z,6.70
2022-10-20T08:35:18.611Z,6.90
2022-10-20T08:37:45.695Z,7.40
2022-10-20T08:40:14.373Z,7.53
2022-10-20T08:42:43.058Z,8.00
2022-10-20T08:45:14.689Z,6.80
2022-10-20T08:47:41.952Z,7.73
2022-10-20T08:50:11.547Z,8.53
2022-10-20T08:52:40.724Z,8.03
2022-10-20T08:55:08.704Z,8.00
2022-10-20T08:57:36.881Z,7.03
2022-10-20T09:00:13.684Z,7.97
2022-10-20T09:02:42.138Z,8.00
2022-10-20T09:05:09.607Z,9.03
2022-10-20T09:07:38.322Z,7.60
2022-10-20T09:10:18.938Z,7.23
2022-10-20T09:12:47.187Z,6.40
2022-10-20T09:15:15.133Z,7.90
2022-10-20T09:17:44.837Z,5.93
2022-10-20T09:20:13.214Z,7.90
2022-10-20T09:22:40.519Z,8.17
2022-10-20T09:25:13.669Z,6.43
2022-10-20T09:27:41.940Z,7.23
2022-10-20T09:30:16.494Z,6.50
2022-10-20T09:32:46.992Z,7.53
2022-10-20T09:35:23.752Z,7.70
2022-10-20T09:37:55.954Z,7.33
2022-10-20T09:40:23.280Z,6.63
2022-10-20T09:42:51.790Z,7.27
2022-10-20T09:45:20.502Z,8.23
2022-10-20T09:47:51.105Z,6.80
2022-10-20T09:50:19.731Z,8.40
2022-10-20T09:52:47.155Z,6.23
2022-10-20T09:55:21.426Z,8.27
2022-10-20T09:57:49.053Z,7.40
2022-10-20T10:00:36.262Z,6.80
2022-10-20T10:03:14.952Z,8.63
2022-10-20T10:05:42.079Z,6.60
2022-10-20T10:08:13.713Z,7.40
2022-10-20T10:10:40.841Z,6.97
2022-10-20T10:13:22.547Z,6.60
2022-10-20T10:15:59.450Z,7.70
2022-10-20T10:18:28.476Z,6.60
2022-10-20T10:21:00.010Z,8.10
2022-10-20T10:23:28.105Z,8.17
2022-10-20T10:25:59.245Z,8.63
2022-10-20T10:28:31.548Z,8.50
2022-10-20T10:31:19.902Z,8.20
2022-10-20T10:33:48.633Z,8.40
2022-10-20T10:36:28.085Z,7.43
2022-10-20T10:38:55.228Z,8.00
2022-10-20T10:41:24.646Z,7.97
2022-10-20T10:43:55.688Z,8.57
2022-10-20T10:46:27.094Z,7.50
2022-10-20T10:49:06.126Z,8.23
2022-10-20T10:51:39.257Z,8.27
2022-10-20T10:54:16.218Z,7.87
2022-10-20T10:56:44.788Z,8.67
2022-10-20T10:59:13.168Z,9.37
2022-10-20T11:01:47.895Z,8.60
2022-10-20T11:04:32.659Z,6.50
2022-10-20T11:07:04.826Z,8.90
2022-10-20T11:09:36.790Z,8.97
2022-10-20T11:12:24.535Z,11.70
2022-10-20T11:14:58.049Z,9.80
2022-10-20T11:17:34.701Z,9.90
2022-10-20T11:20:13.589Z,9.73
2022-10-20T11:22:46.615Z,10.37
2022-10-20T11:25:17.142Z,13.63
2022-10-20T11:27:44.285Z,10.83
2022-10-20T11:30:14.393Z,11.40
2022-10-20T11:32:42.904Z,11.57
2022-10-20T11:35:14.966Z,12.97
2022-10-20T11:37:45.938Z,12.60
2022-10-20T11:40:16.658Z,13.30
2022-10-20T11:42:45.456Z,13.70
2022-10-20T11:45:34.995Z,12.43
2022-10-20T11:48:05.185Z,13.80
2022-10-20T11:50:32.852Z,13.83
2022-10-20T11:53:27.720Z,15.10
2022-10-20T11:56:08.628Z,15.10
2022-10-20T11:58:45.437Z,11.47
2022-10-20T12:01:36.557Z,15.27
2022-10-20T12:04:16.810Z,14.87
2022-10-20T12:06:51.122Z,14.83
2022-10-20T12:09:38.591Z,13.60
2022-10-20T12:12:08.077Z,15.17
2022-10-20T12:14:38.414Z,16.37
2022-10-20T12:17:16.940Z,15.30
2022-10-20T12:19:44.059Z,14.00
2022-10-20T12:22:29.700Z,14.10
2022-10-20T12:25:18.895Z,16.47
2022-10-20T12:27:45.980Z,15.77
2022-10-20T12:30:31.883Z,15.13
2022-10-20T12:33:16.088Z,14.03
2022-10-20T12:35:58.090Z,15.10
2022-10-20T12:38:25.383Z,16.00
2022-10-20T12:40:55.837Z,18.83
2022-10-20T12:43:24.570Z,16.00
2022-10-20T12:45:51.960Z,15.90
2022-10-20T12:48:21.414Z,17.47
2022-10-20T12:50:48.990Z,17.60
2022-10-20T12:53:20.011Z,19.13
2022-10-20T12:55:48.690Z,16.20
2022-10-20T12:58:27.325Z,16.10
2022-10-20T13:01:01.326Z,15.20
2022-10-20T13:03:45.042Z,14.47
2022-10-20T13:06:30.912Z,15.00
2022-10-20T13:09:16.533Z,14.70
2022-10-20T13:11:53.005Z,16.93
2022-10-20T13:14:50.291Z,15.10
2022-10-20T13:17:23.253Z,14.63
2022-10-20T13:19:55.451Z,13.93
2022-10-20T13:22:29.825Z,15.37
2022-10-20T13:24:57.544Z,15.47
2022-10-20T13:27:24.670Z,13.17
2022-10-20T13:29:51.926Z,15.70
2022-10-20T13:32:22.870Z,14.60
2022-10-20T13:34:53.460Z,15.47
2022-10-20T13:37:38.298Z,15.10
2022-10-20T13:40:12.655Z,13.93
2022-10-20T13:42:47.589Z,16.17
2022-10-20T13:45:20.628Z,13.63
2022-10-20T13:47:49.354Z,12.23
2022-10-20T13:52:53.035Z,14.83
2022-10-20T13:55:21.662Z,13.80
2022-10-20T13:57:55.133Z,12.30
2022-10-20T14:00:24.476Z,12.93
2022-10-20T14:02:55.908Z,12.73
2022-10-20T14:05:24.893Z,11.63
2022-10-20T14:07:52.201Z,11.20
2022-10-20T14:10:23.729Z,10.90
2022-10-20T14:12:51.235Z,14.57
2022-10-20T14:15:21.564Z,12.53
2022-10-20T14:17:55.524Z,11.90
2022-10-20T14:20:23.155Z,11.10
2022-10-20T14:22:51.925Z,10.40
2022-10-20T14:25:19.138Z,11.20
2022-10-20T14:27:46.333Z,11.10
2022-10-20T14:30:15.860Z,10.93
2022-10-20T14:32:43.819Z,12.23
2022-10-20T14:35:24.292Z,13.17
2022-10-20T14:37:54.597Z,10.47
2022-10-20T14:40:22.856Z,11.87
2022-10-20T14:42:50.111Z,11.53
2022-10-20T14:45:19.316Z,11.43
2022-10-20T14:47:46.484Z,11.83
2022-10-20T14:50:20.482Z,11.53
2022-10-20T14:52:52.927Z,11.20
2022-10-20T14:55:30.978Z,10.07
2022-10-20T14:57:58.199Z,11.53
2022-10-20T15:00:30.038Z,11.93
2022-10-20T15:02:57.833Z,10.43
2022-10-20T15:05:32.535Z,10.93
2022-10-20T15:08:07.276Z,10.73
2022-10-20T15:10:35.744Z,12.00
2022-10-20T15:13:02.903Z,11.13
2022-10-20T15:15:36.180Z,11.27
2022-10-20T15:18:11.081Z,13.00
2022-10-20T15:20:38.855Z,10.70
2022-10-20T15:23:08.775Z,11.47
2022-10-20T15:25:41.441Z,12.67
2022-10-20T15:28:14.873Z,10.33
2022-10-20T15:30:41.992Z,12.03
2022-10-20T15:33:09.448Z,12.90
2022-10-20T15:35:36.536Z,10.93
2022-10-20T15:38:03.661Z,11.57
2022-10-20T15:40:30.729Z,11.63
2022-10-20T15:42:59.164Z,12.20
2022-10-20T15:45:26.248Z,13.13
2022-10-20T15:47:53.338Z,12.33
2022-10-20T15:50:22.903Z,13.00
2022-10-20T15:52:51.954Z,11.80
2022-10-20T15:55:20.608Z,14.37
2022-10-20T15:57:47.724Z,12.77
2022-10-20T16:00:16.513Z,11.93
2022-10-20T16:02:43.604Z,12.20
2022-10-20T16:05:10.733Z,13.13
2022-10-20T16:07:38.372Z,12.90
2022-10-20T16:10:06.249Z,13.50
2022-10-20T16:12:33.423Z,12.47
2022-10-20T16:15:00.782Z,13.40
2022-10-20T16:17:29.236Z,13.50
2022-10-20T16:19:56.307Z,13.63
2022-10-20T16:22:23.439Z,14.57
2022-10-20T16:24:50.545Z,11.67
2022-10-20T16:27:17.770Z,15.17
2022-10-20T16:29:47.571Z,13.97
2022-10-20T16:32:16.889Z,14.20
2022-10-20T16:34:45.333Z,12.93
2022-10-20T16:37:12.455Z,16.50
2022-10-20T16:39:39.641Z,14.27
2022-10-20T16:42:06.910Z,13.47
2022-10-20T16:44:34.044Z,13.63
2022-10-20T16:47:01.274Z,14.30
2022-10-20T16:49:28.420Z,14.10
2022-10-20T16:51:56.819Z,14.80
2022-10-20T16:54:23.985Z,14.20
2022-10-20T16:56:51.058Z,11.63
2022-10-20T16:59:18.171Z,12.40
2022-10-20T17:01:45.255Z,13.80
2022-10-20T17:04:12.536Z,14.63
2022-10-20T17:06:39.906Z,14.80
2022-10-20T17:09:08.395Z,14.80
2022-10-20T17:11:35.709Z,14.80
2022-10-20T17:14:02.785Z,14.17
2022-10-20T17:16:30.988Z,12.07
2022-10-20T17:18:58.747Z,13.67
2022-10-20T17:21:25.923Z,13.93
2022-10-20T17:23:53.123Z,15.13
2022-10-20T17:26:22.573Z,14.13
2022-10-20T17:28:49.713Z,15.53
2022-10-20T17:31:17.816Z,14.47
2022-10-20T17:33:45.092Z,12.67
2022-10-20T17:36:12.628Z,12.93
2022-10-20T17:38:40.874Z,14.67
2022-10-20T17:41:09.094Z,15.20
2022-10-20T17:43:37.652Z,15.10
2022-10-20T17:46:05.890Z,13.30
2022-10-20T17:48:33.037Z,13.13
2022-10-20T17:51:00.730Z,15.73
2022-10-20T17:53:27.811Z,13.30
2022-10-20T17:55:54.887Z,14.63
2022-10-20T17:58:22.017Z,15.13
2022-10-20T18:00:56.690Z,15.00
2022-10-20T18:03:24.126Z,13.10
2022-10-20T18:05:51.218Z,14.13
2022-10-20T18:08:18.322Z,14.30
2022-10-20T18:10:45.409Z,14.90
2022-10-20T18:13:12.513Z,15.40
2022-10-20T18:15:42.031Z,15.23
2022-10-20T18:18:10.487Z,13.07
2022-10-20T18:20:37.595Z,13.77
2022-10-20T18:23:04.679Z,13.17
2022-10-20T18:25:31.819Z,13.97
2022-10-20T18:27:58.901Z,14.43
2022-10-20T18:30:26.008Z,14.80
2022-10-20T18:32:53.134Z,12.20
2022-10-20T18:35:21.566Z,13.50
2022-10-20T18:37:48.662Z,14.63
2022-10-20T18:40:15.810Z,12.67
2022-10-20T18:42:42.878Z,14.67
2022-10-20T18:45:10.180Z,13.00
2022-10-20T18:47:37.641Z,13.93
2022-10-20T18:50:05.178Z,13.17
2022-10-20T18:52:34.350Z,13.60
2022-10-20T18:55:01.456Z,12.90
2022-10-20T18:57:30.877Z,13.67
2022-10-20T18:59:57.979Z,15.00
2022-10-20T19:02:25.078Z,12.03
2022-10-20T19:04:52.175Z,13.23
2022-10-20T19:07:19.259Z,13.23
2022-10-20T19:09:49.142Z,13.50
2022-10-20T19:12:19.139Z,14.40
2022-10-20T19:14:46.260Z,15.37
2022-10-20T19:17:13.337Z,13.10
2022-10-20T19:19:40.455Z,12.97
2022-10-20T19:22:07.562Z,13.10
2022-10-20T19:24:34.653Z,15.40
2022-10-20T19:27:24.973Z,13.57
2022-10-20T19:29:50.210Z,14.57
2022-10-20T19:32:17.323Z,12.83
2022-10-20T19:34:44.418Z,12.87
2022-10-20T19:37:11.524Z,14.40
2022-10-20T19:39:39.620Z,12.97
2022-10-20T19:42:08.110Z,11.87
2022-10-20T19:44:35.549Z,13.93
2022-10-20T19:47:02.731Z,13.70
2022-10-20T19:49:29.931Z,14.20
2022-10-20T19:51:57.160Z,14.17
2022-10-20T19:54:24.358Z,14.97
2022-10-20T19:56:51.440Z,14.50
2022-10-20T19:59:19.890Z,12.40
2022-10-20T20:01:47.012Z,12.47
2022-10-20T20:04:14.089Z,13.57
2022-10-20T20:06:41.202Z,13.83
2022-10-20T20:09:09.910Z,13.40
2022-10-20T20:11:37.633Z,13.80
2022-10-20T20:14:05.626Z,14.80
2022-10-20T20:16:34.121Z,12.80
2022-10-20T20:19:01.258Z,13.50
2022-10-20T20:21:28.354Z,13.27
2022-10-20T20:23:59.347Z,13.70
2022-10-20T20:26:27.752Z,13.73
2022-10-20T20:28:55.166Z,11.80
2022-10-20T20:31:22.467Z,12.63
2022-10-20T20:33:50.950Z,14.53
2022-10-20T20:36:18.065Z,13.30
2022-10-20T20:38:45.211Z,14.13
2022-10-20T20:41:13.349Z,13.60
2022-10-20T20:43:40.602Z,15.13
2022-10-20T20:46:08.693Z,13.07
2022-10-20T20:48:36.002Z,13.90
2022-10-20T20:51:04.914Z,14.93
2022-10-20T20:56:05.768Z,12.97
2022-10-20T20:58:33.055Z,13.73
2022-10-20T21:01:03.612Z,12.83
2022-10-20T21:03:30.907Z,13.40
2022-10-20T21:05:58.054Z,14.23
2022-10-20T21:08:26.635Z,12.57
2022-10-20T21:10:53.749Z,13.40
2022-10-20T21:13:20.851Z,14.53
2022-10-20T21:15:47.922Z,14.03
2022-10-20T21:18:15.026Z,12.50
2022-10-20T21:20:42.123Z,12.70
2022-10-20T21:23:09.222Z,13.60
2022-10-20T21:25:37.659Z,13.00
2022-10-20T21:28:04.886Z,12.33
2022-10-20T21:33:03.995Z,14.40
2022-10-20T21:35:31.142Z,13.00
2022-10-20T21:37:58.227Z,13.63
2022-10-20T21:40:25.327Z,12.77
2022-10-20T21:42:53.734Z,11.70
2022-10-20T21:45:20.840Z,12.33
2022-10-20T21:47:47.912Z,13.73
2022-10-20T21:50:15.098Z,12.37
2022-10-20T21:52:42.165Z,12.37
2022-10-20T21:55:09.454Z,11.97
2022-10-20T21:57:36.800Z,11.90
2022-10-20T22:00:07.097Z,14.90
2022-10-20T22:02:35.242Z,12.87
2022-10-20T22:05:02.397Z,13.27
2022-10-20T22:07:29.725Z,10.90
2022-10-20T22:09:56.808Z,12.50
2022-10-20T22:12:23.946Z,14.80
2022-10-20T22:14:51.062Z,12.47
2022-10-20T22:17:19.499Z,12.97
2022-10-20T22:19:46.646Z,12.57
2022-10-20T22:22:13.705Z,16.50
2022-10-20T22:24:40.816Z,14.83
2022-10-20T22:27:15.531Z,14.30
2022-10-20T22:29:54.139Z,12.57
2022-10-20T22:32:25.830Z,13.80
2022-10-20T22:34:52.936Z,13.43
2022-10-20T22:37:20.053Z,15.40
2022-10-20T22:39:47.133Z,15.17
2022-10-20T22:42:14.200Z,16.20
2022-10-20T22:44:41.293Z,16.17
2022-10-20T22:47:08.399Z,17.20
2022-10-20T22:49:36.798Z,17.30
2022-10-20T22:52:04.005Z,16.70
2022-10-20T22:54:31.103Z,15.10
2022-10-20T22:56:58.201Z,15.80
2022-10-20T22:59:25.332Z,16.70
2022-10-20T23:01:52.435Z,16.60
2022-10-20T23:04:19.524Z,14.40
2022-10-20T23:06:47.978Z,15.50
2022-10-20T23:09:15.106Z,16.90
2022-10-20T23:11:42.238Z,17.67
2022-10-20T23:14:09.345Z,19.23
2022-10-20T23:16:36.452Z,18.17
2022-10-20T23:19:03.544Z,19.17
2022-10-20T23:21:30.674Z,18.90
2022-10-20T23:23:59.081Z,20.13
2022-10-20T23:26:26.243Z,18.50
2022-10-20T23:28:53.356Z,19.80
2022-10-20T23:31:21.810Z,18.50
2022-10-20T23:33:50.172Z,19.17
2022-10-20T23:36:17.629Z,16.60
2022-10-20T23:38:44.784Z,16.50
2022-10-20T23:41:13.187Z,17.63
2022-10-20T23:43:40.673Z,18.80
2022-10-20T23:46:08.020Z,17.30
2022-10-20T23:48:35.377Z,15.73
2022-10-20T23:51:02.461Z,17.73
2022-10-20T23:53:29.566Z,16.57
2022-10-20T23:55:56.647Z,16.77
2022-10-20T23:58:25.187Z,13.20
